Main page
Satellite images 15-day forecastsClimateMarine weather Cyclones Lightning AirportsFAQ Newsletter About
Weather : Europe Africa North America South America Asia Australia-Oceania Others
Languages Contact

Mexicali, Mexico

General Rodolfo Sánchez Taboada

latitude: 32-37-50N, longitude: 115-14-30W, elevation: 22 m


METAR: MMML 252041Z 34003KT 10SM SKC 34/06 A2991 RMK SLP129 57023 900 ISOL AC CI
TAF: MMML 251657Z 2518/2618 03010KT P6SM SCT060 FM260300 07006KT P6SM SKC FM261600 36010KT P6SM SKC

Time: 16:05 (21:05 UTC)

Current weather observation

The report was made 24 minutes ago, at 20:41 UTC
Wind 3 kt from the North/Northwest
Temperature 34°C
Humidity 18%
Pressure 1013 hPa
Visibility: 16.1 km
Clear sky

Change units

Forecast

The report was made 4 hours and 8 minutes ago, at 16:57 UTC
Forecast valid from 25 at 18 UTC to 26 at 18 UTC
Wind 10 kt from the North/Northeast
Visibility: 10 km
Scattered clouds at a height of 6000 ft
From 26 at 0300 UTC
Wind 6 kt from the East/Northeast
Visibility: 10 km
Clear sky
From 26 at 1600 UTC
Wind 10 kt from the North
Visibility: 10 km
Clear sky
The information on this site is subject to a disclaimer
Weather : Europe Africa North America South America Asia Australia-Oceania Others
Satellite images 15-day forecastsClimateMarine weather Cyclones Lightning AirportsFAQ Languages Contact Newsletter About